Terminal Aerodrome Forecast
Issued by NWS

Home | Current Version | Previous Version | Text Only | Print | Product List | Glossary On
Versions: 1 2 3 4 5 6 7 8 9 10 11 12 13 14 15 16 17 18 19 20 21 22 23 24 25
531
FTUS42 KCAE 240152 AAA
TAFCUB
TAF AMD
KCUB 240152Z 2402/2424 12005KT P6SM SCT060 SCT100
     FM240300 VRB03KT P6SM SCT060 BKN080
     FM241400 09004KT P6SM FEW040 SCT150
     FM241700 12006KT P6SM SCT045 SCT150=

USA.gov is the U.S. government's official web portal to all federal, state and local government web resources and services.